Terminal Aerodrome Forecast
Issued by NWS

Home | Current Version | Previous Version | Text Only | Print | Product List | Glossary On
Versions: 1 2 3 4 5 6 7 8 9 10 11 12
000
FTUS45 KABQ 211745
TAFTCC
TAF
KTCC 211745Z 2118/2218 24019G30KT P6SM OVC100
     FM212000 27032G42KT P6SM BKN080
     FM220500 30025G35KT P6SM BKN120
     FM220900 30015KT P6SM SCT120=

USA.gov is the U.S. government's official web portal to all federal, state and local government web resources and services.